Terminal Aerodrome Forecast
Issued by NWS

Home | Current Version | Previous Version | Text Only | Print | Product List | Glossary On
Versions: 1 2 3 4 5 6 7 8 9 10 11 12 13 14 15 16 17 18 19 20
774
FTUS41 KPBZ 180432 AAB
TAFHLG
TAF AMD
KHLG 180432Z 1805/1824 26012G18KT P6SM OVC025
     FM180600 28012G18KT P6SM OVC015
     FM181000 25009KT P6SM VCSH OVC008
     FM181100 26009KT P6SM VCSH OVC010=

USA.gov is the U.S. government's official web portal to all federal, state and local government web resources and services.